Time;durP1;ratioP1;P1;durP2;ratioP2;P2;SDS_P1;SDS_P2;PMS_P1;PMS_P2;Temp;Humidity;BMP_temperature;BMP_pressure;BME280_temperature;BME280_humidity;BME280_pressure;Samples;Min_cycle;Max_cycle;Signal;HPM_P1;HPM_P2
2023/07/09 00:00:17;;;;;;;;;;;14.20;57.90;;;;;;6274397;22;19903;-68
2023/07/09 00:02:44;;;;;;;;;;;14.20;57.80;;;;;;6274581;22;20318;-68
2023/07/09 00:05:14;;;;;;;;;;;14.20;57.80;;;;;;6274969;22;19903;-69
2023/07/09 00:07:41;;;;;;;;;;;14.20;57.80;;;;;;6276710;22;20022;-69
2023/07/09 00:10:17;;;;;;;;;;;14.30;57.60;;;;;;6276461;22;20327;-69
2023/07/09 00:12:44;;;;;;;;;;;14.30;57.40;;;;;;6275960;22;19914;-69
2023/07/09 00:15:12;;;;;;;;;;;14.40;57.10;;;;;;6276154;22;20319;-69
2023/07/09 00:17:39;;;;;;;;;;;14.40;57.10;;;;;;6274750;22;19917;-69
2023/07/09 00:20:13;;;;;;;;;;;14.40;56.90;;;;;;6274600;22;19907;-69
2023/07/09 00:22:41;;;;;;;;;;;14.50;56.70;;;;;;6274559;22;19980;-69
2023/07/09 00:25:13;;;;;;;;;;;14.60;56.70;;;;;;6276003;22;19903;-68
2023/07/09 00:27:40;;;;;;;;;;;14.60;56.70;;;;;;6249534;22;19909;-70
2023/07/09 00:30:10;;;;;;;;;;;14.60;56.30;;;;;;6275349;22;19915;-69
2023/07/09 00:32:43;;;;;;;;;;;14.60;56.10;;;;;;6274694;22;20382;-69
2023/07/09 00:35:16;;;;;;;;;;;14.60;56.00;;;;;;6275155;22;20432;-69
2023/07/09 00:37:43;;;;;;;;;;;14.70;55.50;;;;;;6275924;22;19911;-69
2023/07/09 00:40:20;;;;;;;;;;;14.70;54.60;;;;;;6275899;22;19961;-69
2023/07/09 00:42:47;;;;;;;;;;;14.80;54.50;;;;;;6274970;22;19915;-69
2023/07/09 00:45:27;;;;;;;;;;;14.70;54.20;;;;;;6274842;22;19903;-70
2023/07/09 00:48:00;;;;;;;;;;;14.70;54.40;;;;;;6276796;22;19910;-70
2023/07/09 00:50:30;;;;;;;;;;;14.80;54.30;;;;;;6272757;22;20369;-70
2023/07/09 00:52:59;;;;;;;;;;;14.80;54.10;;;;;;6273888;22;20323;-70
2023/07/09 00:55:27;;;;;;;;;;;14.80;54.20;;;;;;6275383;22;20014;-70
2023/07/09 00:57:57;;;;;;;;;;;14.80;54.10;;;;;;6275652;22;19917;-71
2023/07/09 01:00:52;;;;;;;;;;;14.90;54.40;;;;;;6274367;22;19949;-70
2023/07/09 01:03:29;;;;;;;;;;;14.90;54.40;;;;;;6270102;22;19910;-70
2023/07/09 01:05:57;;;;;;;;;;;15.00;53.90;;;;;;6249674;22;20238;-70
2023/07/09 01:08:24;;;;;;;;;;;15.10;53.60;;;;;;6273846;22;19903;-70
2023/07/09 01:10:51;;;;;;;;;;;15.10;53.60;;;;;;6276067;22;19938;-71
2023/07/09 01:13:19;;;;;;;;;;;15.20;53.50;;;;;;6275896;22;19910;-70
2023/07/09 01:15:46;;;;;;;;;;;15.20;53.40;;;;;;6276425;22;19907;-70
2023/07/09 01:18:14;;;;;;;;;;;15.20;53.90;;;;;;6276001;22;19950;-70
2023/07/09 01:20:41;;;;;;;;;;;15.20;53.70;;;;;;6273870;22;19935;-69
2023/07/09 01:23:08;;;;;;;;;;;15.30;54.00;;;;;;6273868;22;19903;-69
2023/07/09 01:25:44;;;;;;;;;;;15.30;53.70;;;;;;6275649;22;19903;-69
2023/07/09 01:28:11;;;;;;;;;;;15.30;53.60;;;;;;6274629;22;19907;-69
2023/07/09 01:30:38;;;;;;;;;;;15.30;52.90;;;;;;6276094;22;19903;-69
2023/07/09 01:33:06;;;;;;;;;;;15.30;52.90;;;;;;6274811;22;20406;-69
2023/07/09 01:35:34;;;;;;;;;;;15.30;52.70;;;;;;6274194;22;20203;-69
2023/07/09 01:38:01;;;;;;;;;;;15.30;53.00;;;;;;6274965;22;19922;-70
2023/07/09 01:40:29;;;;;;;;;;;15.40;52.80;;;;;;6274159;22;19916;-70
2023/07/09 01:42:57;;;;;;;;;;;15.40;52.70;;;;;;6274760;22;20014;-70
2023/07/09 01:45:24;;;;;;;;;;;15.40;52.60;;;;;;6274554;22;19953;-70
2023/07/09 01:47:53;;;;;;;;;;;15.50;52.40;;;;;;6276881;22;19965;-69
2023/07/09 01:50:20;;;;;;;;;;;15.50;52.20;;;;;;6276240;22;20224;-69
2023/07/09 01:52:49;;;;;;;;;;;15.50;52.60;;;;;;6278043;22;19903;-69
2023/07/09 01:55:19;;;;;;;;;;;15.50;52.50;;;;;;6276604;22;20350;-69
2023/07/09 01:57:46;;;;;;;;;;;15.50;52.00;;;;;;6277893;22;19921;-70
2023/07/09 02:00:13;;;;;;;;;;;15.60;52.10;;;;;;6276098;22;19908;-69
2023/07/09 02:02:43;;;;;;;;;;;15.60;52.30;;;;;;6278212;22;19910;-70
2023/07/09 02:05:11;;;;;;;;;;;15.70;52.50;;;;;;6276225;22;19904;-70
2023/07/09 02:07:37;;;;;;;;;;;15.70;51.80;;;;;;6276928;22;20323;-70
2023/07/09 02:10:04;;;;;;;;;;;15.70;51.60;;;;;;6278157;22;19956;-70
2023/07/09 02:12:31;;;;;;;;;;;15.70;51.60;;;;;;6276613;22;19919;-69
2023/07/09 02:14:58;;;;;;;;;;;15.70;51.50;;;;;;6277213;22;19933;-69
2023/07/09 02:17:24;;;;;;;;;;;15.70;51.60;;;;;;6277585;22;19994;-69
2023/07/09 02:19:51;;;;;;;;;;;15.70;51.50;;;;;;6277906;22;19914;-69
2023/07/09 02:22:19;;;;;;;;;;;15.70;51.70;;;;;;6274774;22;19904;-69
2023/07/09 02:24:46;;;;;;;;;;;15.70;51.70;;;;;;6276031;22;19910;-70
2023/07/09 02:27:17;;;;;;;;;;;15.80;51.30;;;;;;6276660;22;20342;-69
2023/07/09 02:29:45;;;;;;;;;;;15.80;51.10;;;;;;6275310;22;19907;-69
2023/07/09 02:32:14;;;;;;;;;;;15.80;50.80;;;;;;6277268;22;19903;-69
2023/07/09 02:34:41;;;;;;;;;;;15.80;50.60;;;;;;6273506;22;19903;-69
2023/07/09 02:37:07;;;;;;;;;;;15.90;50.70;;;;;;6276092;22;19919;-68
2023/07/09 02:39:34;;;;;;;;;;;15.90;50.40;;;;;;6275620;22;19950;-69
2023/07/09 02:42:01;;;;;;;;;;;15.90;50.90;;;;;;6275527;22;19907;-69
2023/07/09 02:44:28;;;;;;;;;;;15.90;51.00;;;;;;6277140;22;19903;-70
2023/07/09 02:46:54;;;;;;;;;;;16.00;51.50;;;;;;6272544;22;19907;-71
2023/07/09 02:49:22;;;;;;;;;;;16.00;50.60;;;;;;6273188;22;20246;-71
2023/07/09 02:51:49;;;;;;;;;;;15.90;51.00;;;;;;6273954;22;20246;-72
2023/07/09 02:54:15;;;;;;;;;;;15.90;51.00;;;;;;6274200;22;19907;-73
2023/07/09 02:56:42;;;;;;;;;;;16.00;51.70;;;;;;6273882;22;19907;-73
2023/07/09 02:59:09;;;;;;;;;;;16.00;51.20;;;;;;6272266;22;19911;-73
2023/07/09 03:01:36;;;;;;;;;;;16.00;50.50;;;;;;6273798;22;19907;-74
2023/07/09 03:04:03;;;;;;;;;;;16.10;50.50;;;;;;6274142;22;19911;-75
2023/07/09 03:06:29;;;;;;;;;;;16.10;50.50;;;;;;6273249;22;19914;-73
2023/07/09 03:08:56;;;;;;;;;;;16.10;49.90;;;;;;6270399;22;19945;-73
2023/07/09 03:11:23;;;;;;;;;;;16.10;50.40;;;;;;6273560;22;19907;-71
2023/07/09 03:13:50;;;;;;;;;;;16.20;50.20;;;;;;6274203;22;19930;-72
2023/07/09 03:16:18;;;;;;;;;;;16.20;50.10;;;;;;6272743;22;19918;-71
2023/07/09 03:18:45;;;;;;;;;;;16.20;49.80;;;;;;6273226;22;19993;-71
2023/07/09 03:21:12;;;;;;;;;;;16.20;49.90;;;;;;6271557;22;19907;-71
2023/07/09 03:23:39;;;;;;;;;;;16.20;49.70;;;;;;6273606;22;19953;-71
2023/07/09 03:26:05;;;;;;;;;;;16.20;49.90;;;;;;6273516;22;20361;-71
2023/07/09 03:28:32;;;;;;;;;;;16.20;49.90;;;;;;6272159;22;19990;-71
2023/07/09 03:30:59;;;;;;;;;;;16.20;50.00;;;;;;6273926;22;19912;-71
2023/07/09 03:33:25;;;;;;;;;;;16.20;50.20;;;;;;6275087;22;19926;-72
2023/07/09 03:35:52;;;;;;;;;;;16.20;50.10;;;;;;6276979;22;19904;-71
2023/07/09 03:38:19;;;;;;;;;;;16.20;49.80;;;;;;6275476;22;19911;-71
2023/07/09 03:40:46;;;;;;;;;;;16.20;49.70;;;;;;6276886;22;19922;-71
2023/07/09 03:43:12;;;;;;;;;;;16.20;49.80;;;;;;6276930;22;19954;-71
2023/07/09 03:45:39;;;;;;;;;;;16.30;50.10;;;;;;6275589;22;20341;-71
2023/07/09 03:48:06;;;;;;;;;;;16.30;50.00;;;;;;6250089;22;20378;-71
2023/07/09 03:50:33;;;;;;;;;;;16.40;49.70;;;;;;6269647;22;19913;-73
2023/07/09 03:53:00;;;;;;;;;;;16.30;49.70;;;;;;6270874;22;20330;-72
2023/07/09 03:55:26;;;;;;;;;;;16.40;49.70;;;;;;6272940;22;19904;-72
2023/07/09 03:57:56;;;;;;;;;;;16.40;49.70;;;;;;6272625;22;20339;-72
2023/07/09 04:00:24;;;;;;;;;;;16.40;49.90;;;;;;6272412;22;19934;-72
2023/07/09 04:02:51;;;;;;;;;;;16.40;49.80;;;;;;6271112;22;19911;-72
2023/07/09 04:05:18;;;;;;;;;;;16.40;50.00;;;;;;6271699;22;19907;-71
2023/07/09 04:07:45;;;;;;;;;;;16.40;50.10;;;;;;6271099;22;19964;-70
2023/07/09 04:10:12;;;;;;;;;;;16.40;50.20;;;;;;6272960;22;19910;-69
2023/07/09 04:12:38;;;;;;;;;;;16.50;49.60;;;;;;6273287;22;19907;-71
2023/07/09 04:15:05;;;;;;;;;;;16.40;49.70;;;;;;6273110;22;19939;-71
2023/07/09 04:17:32;;;;;;;;;;;16.40;50.00;;;;;;6273251;22;19946;-70
2023/07/09 04:19:59;;;;;;;;;;;16.40;49.90;;;;;;6273177;22;19994;-71
2023/07/09 04:22:26;;;;;;;;;;;16.40;50.40;;;;;;6272182;22;19907;-70
2023/07/09 04:24:52;;;;;;;;;;;16.40;50.20;;;;;;6270136;22;19911;-71
2023/07/09 04:27:19;;;;;;;;;;;16.40;50.30;;;;;;6272625;22;19912;-72
2023/07/09 04:29:46;;;;;;;;;;;16.50;50.10;;;;;;6271129;22;20234;-71
2023/07/09 04:32:13;;;;;;;;;;;16.50;50.00;;;;;;6272703;22;19903;-73
2023/07/09 04:34:40;;;;;;;;;;;16.50;49.80;;;;;;6272842;22;20004;-73
2023/07/09 04:37:07;;;;;;;;;;;16.50;49.90;;;;;;6272467;22;20208;-71
2023/07/09 04:39:34;;;;;;;;;;;16.40;50.00;;;;;;6272772;22;19926;-71
2023/07/09 04:42:00;;;;;;;;;;;16.40;50.30;;;;;;6271808;22;19918;-70
2023/07/09 04:44:27;;;;;;;;;;;16.40;50.30;;;;;;6271803;22;19903;-71
2023/07/09 04:46:54;;;;;;;;;;;16.40;50.50;;;;;;6270229;22;19938;-71
2023/07/09 04:49:21;;;;;;;;;;;16.30;50.90;;;;;;6271151;22;19973;-70
2023/07/09 04:51:47;;;;;;;;;;;16.40;50.90;;;;;;6272568;22;20338;-71
2023/07/09 04:54:14;;;;;;;;;;;16.40;50.80;;;;;;6272605;22;19907;-72
2023/07/09 04:56:45;;;;;;;;;;;16.40;51.00;;;;;;6272743;22;20369;-72
2023/07/09 04:59:12;;;;;;;;;;;16.40;51.10;;;;;;6271516;22;19911;-71
2023/07/09 05:01:39;;;;;;;;;;;16.40;50.90;;;;;;6270423;22;19913;-72
2023/07/09 05:04:06;;;;;;;;;;;16.40;51.10;;;;;;6271066;22;19938;-71
2023/07/09 05:06:33;;;;;;;;;;;16.40;51.00;;;;;;6272978;22;20306;-73
2023/07/09 05:09:00;;;;;;;;;;;16.40;51.20;;;;;;6273313;22;20393;-71
2023/07/09 05:11:27;;;;;;;;;;;16.50;51.10;;;;;;6273113;22;19907;-70
2023/07/09 05:13:54;;;;;;;;;;;16.50;51.00;;;;;;6271130;22;20338;-69
2023/07/09 05:16:20;;;;;;;;;;;16.50;51.30;;;;;;6272710;22;19933;-69
2023/07/09 05:18:47;;;;;;;;;;;16.40;51.10;;;;;;6272779;22;19918;-70
2023/07/09 05:21:14;;;;;;;;;;;16.50;51.10;;;;;;6271083;22;19981;-70
2023/07/09 05:23:41;;;;;;;;;;;16.50;50.70;;;;;;6273032;22;19949;-69
2023/07/09 05:26:07;;;;;;;;;;;16.50;50.70;;;;;;6270171;22;19907;-69
2023/07/09 05:28:34;;;;;;;;;;;16.50;50.90;;;;;;6270971;22;19903;-72
2023/07/09 05:31:01;;;;;;;;;;;16.50;50.80;;;;;;6271248;22;19907;-69
2023/07/09 05:33:28;;;;;;;;;;;16.50;51.30;;;;;;6270917;22;20330;-70
2023/07/09 05:35:55;;;;;;;;;;;16.50;51.10;;;;;;6272331;22;19914;-70
2023/07/09 05:38:22;;;;;;;;;;;16.50;51.30;;;;;;6270292;22;20190;-69
2023/07/09 05:40:49;;;;;;;;;;;16.40;51.40;;;;;;6272681;22;20358;-69
2023/07/09 05:43:15;;;;;;;;;;;16.40;51.60;;;;;;6270823;22;19907;-69
2023/07/09 05:45:42;;;;;;;;;;;16.40;51.60;;;;;;6271036;22;19918;-71
2023/07/09 05:48:09;;;;;;;;;;;16.40;51.70;;;;;;6271866;22;19907;-70
2023/07/09 05:50:36;;;;;;;;;;;16.40;51.80;;;;;;6272168;22;19907;-69
2023/07/09 05:53:02;;;;;;;;;;;16.40;51.90;;;;;;6273083;22;19907;-69
2023/07/09 05:55:29;;;;;;;;;;;16.40;51.80;;;;;;6272462;22;19919;-70
2023/07/09 05:57:56;;;;;;;;;;;16.40;51.90;;;;;;6270480;22;19915;-70
2023/07/09 06:00:23;;;;;;;;;;;16.30;52.10;;;;;;6272019;22;19907;-70
2023/07/09 06:02:50;;;;;;;;;;;16.30;52.20;;;;;;6271641;22;20243;-70
2023/07/09 06:05:17;;;;;;;;;;;16.30;52.00;;;;;;6272472;22;20288;-70
2023/07/09 06:07:43;;;;;;;;;;;16.30;52.10;;;;;;6272039;22;20242;-69
2023/07/09 06:10:10;;;;;;;;;;;16.30;52.10;;;;;;6271810;22;19911;-69
2023/07/09 06:12:37;;;;;;;;;;;16.30;52.20;;;;;;6271887;22;19977;-71
2023/07/09 06:15:04;;;;;;;;;;;16.30;52.20;;;;;;6272039;22;20237;-73
2023/07/09 06:17:31;;;;;;;;;;;16.30;52.50;;;;;;6272448;22;19915;-71
2023/07/09 06:19:57;;;;;;;;;;;16.20;52.60;;;;;;6268566;22;19937;-70
2023/07/09 06:22:24;;;;;;;;;;;16.20;52.70;;;;;;6271495;22;19914;-73
2023/07/09 06:24:51;;;;;;;;;;;16.20;53.00;;;;;;6269868;22;20226;-71
2023/07/09 06:27:17;;;;;;;;;;;16.20;53.00;;;;;;6272549;22;19907;-71
2023/07/09 06:29:44;;;;;;;;;;;16.20;53.20;;;;;;6271699;22;19915;-70
2023/07/09 06:32:11;;;;;;;;;;;16.20;53.20;;;;;;6271636;22;19965;-70
2023/07/09 06:34:38;;;;;;;;;;;16.20;53.40;;;;;;6272346;22;20394;-71
2023/07/09 06:37:05;;;;;;;;;;;16.10;53.20;;;;;;6273108;22;19911;-69
2023/07/09 06:39:31;;;;;;;;;;;16.10;53.60;;;;;;6272500;22;19919;-71
2023/07/09 06:41:58;;;;;;;;;;;16.10;53.50;;;;;;6273625;22;19916;-72
2023/07/09 06:44:25;;;;;;;;;;;16.00;53.70;;;;;;6273381;22;20046;-74
2023/07/09 06:46:52;;;;;;;;;;;16.00;54.00;;;;;;6273468;22;19911;-75
2023/07/09 06:49:19;;;;;;;;;;;16.00;53.90;;;;;;6273572;22;19908;-70
2023/07/09 06:51:46;;;;;;;;;;;16.00;53.90;;;;;;6273388;22;19989;-69
2023/07/09 06:54:15;;;;;;;;;;;16.00;53.90;;;;;;6274193;22;20005;-73
2023/07/09 06:56:42;;;;;;;;;;;16.00;54.00;;;;;;6273520;22;19911;-70
2023/07/09 06:59:10;;;;;;;;;;;15.90;54.10;;;;;;6273084;22;19907;-71
2023/07/09 07:01:36;;;;;;;;;;;15.90;54.10;;;;;;6273476;22;20329;-70
2023/07/09 07:04:03;;;;;;;;;;;15.80;54.40;;;;;;6273838;22;19910;-70
2023/07/09 07:06:30;;;;;;;;;;;15.80;54.40;;;;;;6273496;22;19907;-70
2023/07/09 07:08:57;;;;;;;;;;;15.80;54.50;;;;;;6272777;22;19907;-70
2023/07/09 07:11:29;;;;;;;;;;;15.70;54.60;;;;;;6273273;22;19915;-69
2023/07/09 07:13:57;;;;;;;;;;;15.70;54.60;;;;;;6273920;22;19911;-69
2023/07/09 07:16:24;;;;;;;;;;;15.70;54.70;;;;;;6273658;22;19982;-72
2023/07/09 07:18:51;;;;;;;;;;;15.70;54.70;;;;;;6273227;22;20516;-71
2023/07/09 07:21:18;;;;;;;;;;;15.70;54.80;;;;;;6272655;22;20322;-70
2023/07/09 07:23:44;;;;;;;;;;;15.70;55.00;;;;;;6272729;22;19940;-71
2023/07/09 07:26:11;;;;;;;;;;;15.70;55.00;;;;;;6270374;22;19914;-71
2023/07/09 07:28:38;;;;;;;;;;;15.60;55.30;;;;;;6273279;22;19903;-71
2023/07/09 07:31:07;;;;;;;;;;;15.70;55.40;;;;;;6273505;22;19910;-70
2023/07/09 07:33:34;;;;;;;;;;;15.60;55.50;;;;;;6273083;22;19911;-71
2023/07/09 07:36:01;;;;;;;;;;;15.60;55.60;;;;;;6273351;22;19915;-69
2023/07/09 07:38:27;;;;;;;;;;;15.50;55.80;;;;;;6272441;22;19915;-73
2023/07/09 07:40:54;;;;;;;;;;;15.50;56.00;;;;;;6273615;22;19922;-72
2023/07/09 07:43:21;;;;;;;;;;;15.50;56.30;;;;;;6272983;22;19907;-73
2023/07/09 07:45:47;;;;;;;;;;;15.50;56.60;;;;;;6272712;22;19908;-70
2023/07/09 07:48:14;;;;;;;;;;;15.50;56.70;;;;;;6272297;22;20326;-72
2023/07/09 07:50:41;;;;;;;;;;;15.50;56.80;;;;;;6270889;22;19903;-68
2023/07/09 07:53:09;;;;;;;;;;;15.40;56.80;;;;;;6272873;22;19907;-69
2023/07/09 07:55:36;;;;;;;;;;;15.40;56.80;;;;;;6272829;22;19909;-69
2023/07/09 07:58:03;;;;;;;;;;;15.30;56.90;;;;;;6272726;22;19915;-69
2023/07/09 08:00:31;;;;;;;;;;;15.30;57.10;;;;;;6273046;22;20376;-70
2023/07/09 08:02:57;;;;;;;;;;;15.30;57.20;;;;;;6272979;22;20185;-70
2023/07/09 08:05:25;;;;;;;;;;;15.30;57.30;;;;;;6272472;22;20305;-68
2023/07/09 08:07:51;;;;;;;;;;;15.20;57.40;;;;;;6272886;22;20345;-69
2023/07/09 08:10:18;;;;;;;;;;;15.30;57.50;;;;;;6273093;22;19953;-68
2023/07/09 08:12:45;;;;;;;;;;;15.20;57.50;;;;;;6273443;22;19911;-67
2023/07/09 08:15:12;;;;;;;;;;;15.20;57.70;;;;;;6272164;22;20242;-68
2023/07/09 08:17:38;;;;;;;;;;;15.20;57.90;;;;;;6272763;22;19911;-67
2023/07/09 08:20:05;;;;;;;;;;;15.20;57.90;;;;;;6271981;22;19982;-66
2023/07/09 08:22:32;;;;;;;;;;;15.10;58.00;;;;;;6272984;22;19914;-66
2023/07/09 08:24:59;;;;;;;;;;;15.10;58.10;;;;;;6270366;22;19910;-67
2023/07/09 08:27:26;;;;;;;;;;;15.00;58.10;;;;;;6272926;22;19946;-66
2023/07/09 08:29:52;;;;;;;;;;;15.10;58.20;;;;;;6272571;22;19990;-68
2023/07/09 08:32:19;;;;;;;;;;;15.10;58.20;;;;;;6272842;22;19907;-69
2023/07/09 08:34:46;;;;;;;;;;;15.00;58.20;;;;;;6273021;22;19907;-66
2023/07/09 08:37:12;;;;;;;;;;;15.00;58.30;;;;;;6271836;22;19911;-68
2023/07/09 08:39:39;;;;;;;;;;;15.00;58.50;;;;;;6270744;22;20289;-68
2023/07/09 08:42:08;;;;;;;;;;;15.00;58.50;;;;;;6272554;22;20394;-68
2023/07/09 08:44:34;;;;;;;;;;;15.00;58.60;;;;;;6268673;22;20248;-68
2023/07/09 08:47:01;;;;;;;;;;;14.90;58.60;;;;;;6271754;22;19915;-68
2023/07/09 08:49:37;;;;;;;;;;;14.90;58.70;;;;;;6272887;22;19961;-68
2023/07/09 08:52:04;;;;;;;;;;;14.90;58.70;;;;;;6272365;22;19941;-68
2023/07/09 08:54:32;;;;;;;;;;;14.90;58.90;;;;;;6269773;22;19915;-68
2023/07/09 08:57:00;;;;;;;;;;;14.90;59.00;;;;;;6270288;22;19915;-68
2023/07/09 08:59:27;;;;;;;;;;;14.90;59.00;;;;;;6272375;22;19907;-72
2023/07/09 09:01:59;;;;;;;;;;;14.80;59.20;;;;;;6272383;22;19914;-66
2023/07/09 09:04:29;;;;;;;;;;;14.80;59.20;;;;;;6271429;22;19915;-67
2023/07/09 09:07:11;;;;;;;;;;;14.80;59.30;;;;;;6272873;22;19907;-68
2023/07/09 09:09:38;;;;;;;;;;;14.80;59.40;;;;;;6272643;22;19934;-70
2023/07/09 09:12:10;;;;;;;;;;;14.80;59.70;;;;;;6272308;22;20224;-67
2023/07/09 09:14:38;;;;;;;;;;;14.70;59.80;;;;;;6272144;22;19907;-69
2023/07/09 09:17:08;;;;;;;;;;;14.70;60.10;;;;;;6272256;22;19911;-68
2023/07/09 09:19:38;;;;;;;;;;;14.70;60.30;;;;;;6270513;22;19930;-68
2023/07/09 09:22:09;;;;;;;;;;;14.60;60.60;;;;;;6270598;22;20255;-69
2023/07/09 09:24:36;;;;;;;;;;;14.60;60.80;;;;;;6269628;22;19911;-66
2023/07/09 09:27:03;;;;;;;;;;;14.60;60.90;;;;;;6271776;22;19911;-66
2023/07/09 09:29:31;;;;;;;;;;;14.60;60.90;;;;;;6273279;22;19912;-67
2023/07/09 09:31:58;;;;;;;;;;;14.50;60.90;;;;;;6272599;22;19907;-68
2023/07/09 09:34:27;;;;;;;;;;;14.50;61.10;;;;;;6271894;22;20709;-71
2023/07/09 09:36:54;;;;;;;;;;;14.50;61.10;;;;;;6272743;22;19918;-72
2023/07/09 09:39:21;;;;;;;;;;;14.50;61.10;;;;;;6272432;22;19998;-70
2023/07/09 09:41:47;;;;;;;;;;;14.40;61.00;;;;;;6272436;22;19907;-71
2023/07/09 09:44:21;;;;;;;;;;;14.50;61.10;;;;;;6270315;22;20227;-73
2023/07/09 09:46:50;;;;;;;;;;;14.50;61.20;;;;;;6272171;22;19950;-75
2023/07/09 09:49:16;;;;;;;;;;;14.50;61.50;;;;;;6272046;22;20246;-73
2023/07/09 09:51:45;;;;;;;;;;;14.50;61.30;;;;;;6273304;22;20396;-73
2023/07/09 09:54:30;;;;;;;;;;;14.40;61.50;;;;;;6272232;22;19957;-72
2023/07/09 09:56:57;;;;;;;;;;;14.40;61.60;;;;;;6272507;22;20307;-70
2023/07/09 09:59:33;;;;;;;;;;;14.40;61.80;;;;;;6272224;22;19983;-71
2023/07/09 10:02:00;;;;;;;;;;;14.40;61.90;;;;;;6272668;22;19976;-71
2023/07/09 10:04:27;;;;;;;;;;;14.30;61.80;;;;;;6272105;22;19986;-71
2023/07/09 10:06:57;;;;;;;;;;;14.30;61.80;;;;;;6272372;22;19914;-71
2023/07/09 10:09:24;;;;;;;;;;;14.30;61.80;;;;;;6274546;22;19903;-69
2023/07/09 10:11:55;;;;;;;;;;;14.30;62.30;;;;;;6274760;22;19911;-70
2023/07/09 10:14:40;;;;;;;;;;;14.30;62.30;;;;;;6272629;22;19907;-72
2023/07/09 10:17:29;;;;;;;;;;;14.30;62.10;;;;;;6273819;22;20240;-71
2023/07/09 10:20:08;;;;;;;;;;;14.30;61.90;;;;;;6258646;22;19919;-72
2023/07/09 10:22:38;;;;;;;;;;;14.30;61.70;;;;;;6274787;22;19911;-72
2023/07/09 10:25:05;;;;;;;;;;;14.30;61.80;;;;;;6271378;22;20376;-71
2023/07/09 10:27:33;;;;;;;;;;;14.30;61.80;;;;;;6274396;22;19957;-69
2023/07/09 10:30:14;;;;;;;;;;;14.30;61.90;;;;;;6274462;22;19910;-70
2023/07/09 10:32:48;;;;;;;;;;;14.30;62.10;;;;;;6272102;22;19911;-68
2023/07/09 10:35:15;;;;;;;;;;;14.20;62.40;;;;;;6270964;22;20315;-69
2023/07/09 10:37:42;;;;;;;;;;;14.20;62.40;;;;;;6273814;22;19962;-67
2023/07/09 10:40:10;;;;;;;;;;;14.20;62.90;;;;;;6273864;22;19925;-69
2023/07/09 10:42:40;;;;;;;;;;;14.20;63.10;;;;;;6271753;22;19962;-67
2023/07/09 10:45:11;;;;;;;;;;;14.20;63.00;;;;;;6272046;22;19938;-69
2023/07/09 10:47:39;;;;;;;;;;;14.10;63.50;;;;;;6273164;22;19987;-68
2023/07/09 10:50:06;;;;;;;;;;;14.10;63.40;;;;;;6272506;22;20307;-68
2023/07/09 10:52:41;;;;;;;;;;;14.10;63.50;;;;;;6272885;22;20255;-68
2023/07/09 10:55:17;;;;;;;;;;;14.10;63.30;;;;;;6244743;22;19908;-68
2023/07/09 10:57:49;;;;;;;;;;;14.10;63.40;;;;;;6271754;22;19918;-69
2023/07/09 11:00:16;;;;;;;;;;;14.00;63.60;;;;;;6244673;22;19907;-70
2023/07/09 11:02:43;;;;;;;;;;;14.00;63.70;;;;;;6269306;22;20352;-69
2023/07/09 11:05:09;;;;;;;;;;;14.00;63.80;;;;;;6271187;22;19913;-68
2023/07/09 11:07:37;;;;;;;;;;;14.00;63.90;;;;;;6270700;22;19907;-67
2023/07/09 11:10:05;;;;;;;;;;;14.00;64.00;;;;;;6269360;22;20308;-68
2023/07/09 11:12:37;;;;;;;;;;;14.00;64.00;;;;;;6269288;22;20364;-68
2023/07/09 11:15:10;;;;;;;;;;;13.90;64.30;;;;;;6245881;22;20241;-68
2023/07/09 11:17:37;;;;;;;;;;;13.90;64.40;;;;;;6273497;22;19923;-68
2023/07/09 11:20:08;;;;;;;;;;;13.80;64.30;;;;;;6271784;22;19903;-69
2023/07/09 11:22:39;;;;;;;;;;;13.80;64.50;;;;;;6273733;22;19914;-68
2023/07/09 11:25:13;;;;;;;;;;;13.80;64.50;;;;;;6271718;22;19918;-68
2023/07/09 11:27:57;;;;;;;;;;;13.80;64.50;;;;;;6272704;22;20084;-69
2023/07/09 11:30:25;;;;;;;;;;;13.80;64.70;;;;;;6273953;22;19907;-69
2023/07/09 11:33:15;;;;;;;;;;;13.80;64.70;;;;;;6273502;22;19950;-67
2023/07/09 11:35:51;;;;;;;;;;;13.70;64.70;;;;;;6257823;22;19949;-67
2023/07/09 11:38:24;;;;;;;;;;;13.70;64.90;;;;;;6271862;22;19915;-68
2023/07/09 11:40:55;;;;;;;;;;;13.80;65.00;;;;;;6271891;22;19923;-69
2023/07/09 11:43:48;;;;;;;;;;;13.70;65.40;;;;;;6271711;22;19911;-69
2023/07/09 11:46:25;;;;;;;;;;;13.70;65.60;;;;;;6268489;22;19904;-70
2023/07/09 11:48:52;;;;;;;;;;;13.70;65.60;;;;;;6272226;22;20289;-71
2023/07/09 11:51:24;;;;;;;;;;;13.70;65.50;;;;;;6273904;22;19953;-70
2023/07/09 11:53:51;;;;;;;;;;;13.70;65.50;;;;;;6245728;22;19986;-70
2023/07/09 11:56:19;;;;;;;;;;;13.70;65.70;;;;;;6272269;22;19910;-68
2023/07/09 11:58:49;;;;;;;;;;;13.70;65.70;;;;;;6273613;22;19915;-69
2023/07/09 12:01:17;;;;;;;;;;;13.60;65.90;;;;;;6273128;22;20232;-70
2023/07/09 12:03:44;;;;;;;;;;;13.50;65.90;;;;;;6271980;22;19907;-68
2023/07/09 12:06:17;;;;;;;;;;;13.50;66.20;;;;;;6271683;22;19911;-70
2023/07/09 12:08:43;;;;;;;;;;;13.50;66.30;;;;;;6271860;22;19938;-69
2023/07/09 12:11:19;;;;;;;;;;;13.60;66.40;;;;;;6271908;22;19922;-69
2023/07/09 12:13:46;;;;;;;;;;;13.50;66.40;;;;;;6272696;22;19911;-68
2023/07/09 12:16:24;;;;;;;;;;;13.50;66.50;;;;;;6273145;22;20379;-67
2023/07/09 12:18:51;;;;;;;;;;;13.40;66.50;;;;;;6273770;22;19923;-67
2023/07/09 12:21:18;;;;;;;;;;;13.40;66.60;;;;;;6271745;22;19903;-67
2023/07/09 12:23:45;;;;;;;;;;;13.40;66.50;;;;;;6273000;22;19969;-70
2023/07/09 12:26:16;;;;;;;;;;;13.30;66.90;;;;;;6243584;22;19907;-68
2023/07/09 12:28:43;;;;;;;;;;;13.30;67.00;;;;;;6271442;22;19907;-70
2023/07/09 12:31:13;;;;;;;;;;;13.30;66.70;;;;;;6271783;22;19907;-68
2023/07/09 12:33:46;;;;;;;;;;;13.30;66.60;;;;;;6272775;22;19903;-69
2023/07/09 12:36:13;;;;;;;;;;;13.30;66.50;;;;;;6272011;22;20359;-69
2023/07/09 12:38:44;;;;;;;;;;;13.30;66.40;;;;;;6272616;22;20042;-71
2023/07/09 12:41:17;;;;;;;;;;;13.30;66.50;;;;;;6271405;22;19934;-70
2023/07/09 12:43:43;;;;;;;;;;;13.30;66.70;;;;;;6271094;22;19911;-69
2023/07/09 12:46:10;;;;;;;;;;;13.30;66.80;;;;;;6271581;22;19955;-71
2023/07/09 12:48:37;;;;;;;;;;;13.30;66.60;;;;;;6272105;22;20408;-69
2023/07/09 12:51:06;;;;;;;;;;;13.30;66.50;;;;;;6272731;22;19903;-69
2023/07/09 12:53:33;;;;;;;;;;;13.30;66.40;;;;;;6270917;22;19907;-68
2023/07/09 12:56:00;;;;;;;;;;;13.30;66.30;;;;;;6272851;22;19925;-70
2023/07/09 12:58:31;;;;;;;;;;;13.30;66.20;;;;;;6271653;22;19958;-68
2023/07/09 13:00:58;;;;;;;;;;;13.30;66.10;;;;;;6270774;22;19904;-69
2023/07/09 13:03:28;;;;;;;;;;;13.40;66.20;;;;;;6270823;22;19918;-69
2023/07/09 13:05:59;;;;;;;;;;;13.40;66.10;;;;;;6271171;22;19911;-69
2023/07/09 13:08:26;;;;;;;;;;;13.40;66.10;;;;;;6271319;22;19907;-69
2023/07/09 13:10:54;;;;;;;;;;;13.40;66.10;;;;;;6270920;22;19979;-68
2023/07/09 13:13:21;;;;;;;;;;;13.40;66.10;;;;;;6272140;22;19972;-69
2023/07/09 13:15:59;;;;;;;;;;;13.40;66.00;;;;;;6273506;22;19946;-69
2023/07/09 13:18:25;;;;;;;;;;;13.50;65.80;;;;;;6246340;22;20243;-69
2023/07/09 13:20:52;;;;;;;;;;;13.40;65.90;;;;;;6273152;22;20275;-69
2023/07/09 13:23:20;;;;;;;;;;;13.40;65.90;;;;;;6272487;22;20283;-70
2023/07/09 13:25:46;;;;;;;;;;;13.40;66.00;;;;;;6272914;22;19911;-68
2023/07/09 13:28:19;;;;;;;;;;;13.40;66.30;;;;;;6276227;22;19915;-67
2023/07/09 13:30:46;;;;;;;;;;;13.30;66.50;;;;;;6275839;22;19907;-67
2023/07/09 13:33:14;;;;;;;;;;;13.30;66.50;;;;;;6274288;22;19907;-67
2023/07/09 13:35:41;;;;;;;;;;;13.30;66.60;;;;;;6274972;22;20291;-67
2023/07/09 13:38:18;;;;;;;;;;;13.30;66.80;;;;;;6276064;22;20279;-67
2023/07/09 13:40:46;;;;;;;;;;;13.30;66.80;;;;;;6274365;22;20373;-67
2023/07/09 13:43:17;;;;;;;;;;;13.20;67.10;;;;;;6271688;22;19907;-67
2023/07/09 13:45:43;;;;;;;;;;;13.30;67.10;;;;;;6272447;22;19907;-67
2023/07/09 13:48:17;;;;;;;;;;;13.20;67.20;;;;;;6274615;22;20314;-67
2023/07/09 13:50:44;;;;;;;;;;;13.20;67.40;;;;;;6275948;22;19907;-67
2023/07/09 13:53:15;;;;;;;;;;;13.20;67.60;;;;;;6274177;22;19982;-67
2023/07/09 13:55:42;;;;;;;;;;;13.10;67.70;;;;;;6274530;22;19907;-67
2023/07/09 13:58:10;;;;;;;;;;;13.00;67.70;;;;;;6275421;22;19950;-67
2023/07/09 14:00:37;;;;;;;;;;;13.10;67.70;;;;;;6274489;22;19908;-67
2023/07/09 14:03:08;;;;;;;;;;;13.10;67.60;;;;;;6274123;22;19909;-67
2023/07/09 14:05:34;;;;;;;;;;;13.00;67.70;;;;;;6274392;22;20234;-67
2023/07/09 14:08:01;;;;;;;;;;;13.10;67.70;;;;;;6275797;22;19911;-67
2023/07/09 14:10:28;;;;;;;;;;;13.00;67.60;;;;;;6274318;22;19903;-67
2023/07/09 14:12:56;;;;;;;;;;;13.00;67.60;;;;;;6274794;22;20422;-67
2023/07/09 14:15:23;;;;;;;;;;;13.10;67.40;;;;;;6274275;22;19957;-67
2023/07/09 14:17:50;;;;;;;;;;;13.10;67.30;;;;;;6275343;22;19998;-67
2023/07/09 14:20:17;;;;;;;;;;;13.10;67.40;;;;;;6274211;22;19911;-67
2023/07/09 14:22:44;;;;;;;;;;;13.10;67.60;;;;;;6274246;22;19912;-67